createdAt,value
2022-11-05T00:05:14.047Z,28.90
2022-11-05T00:10:54.272Z,32.85
2022-11-05T00:16:13.184Z,31.70
2022-11-05T00:21:32.437Z,35.90
2022-11-05T00:26:33.242Z,36.70
2022-11-05T00:31:37.022Z,34.28
2022-11-05T00:36:37.760Z,40.38
2022-11-05T00:41:38.470Z,31.33
2022-11-05T00:46:39.705Z,19.62
2022-11-05T00:52:54.842Z,13.45
2022-11-05T00:57:56.838Z,12.68
2022-11-05T01:03:16.210Z,13.38
2022-11-05T01:08:19.282Z,13.07
2022-11-05T01:13:30.320Z,11.07
2022-11-05T01:18:31.248Z,10.98
2022-11-05T01:23:36.387Z,15.18
2022-11-05T01:28:37.749Z,10.48
2022-11-05T01:33:41.618Z,12.80
2022-11-05T01:38:44.657Z,11.80
2022-11-05T01:44:04.028Z,10.48
2022-11-05T01:49:28.756Z,7.90
2022-11-05T01:54:40.604Z,8.13
2022-11-05T01:59:55.785Z,6.97
2022-11-05T02:05:06.475Z,10.65
2022-11-05T02:10:14.100Z,8.48
2022-11-05T02:15:22.965Z,9.00
2022-11-05T02:20:37.956Z,7.93
2022-11-05T02:29:11.298Z,7.03
2022-11-05T02:34:34.798Z,5.47
2022-11-05T02:43:16.127Z,4.57
2022-11-05T02:48:30.453Z,5.28
2022-11-05T02:54:06.388Z,5.72
2022-11-05T02:59:21.269Z,5.65
2022-11-05T03:04:23.953Z,4.57
2022-11-05T03:10:15.151Z,9.32
2022-11-05T03:17:11.596Z,4.45
2022-11-05T03:22:24.684Z,9.35
2022-11-05T03:27:41.836Z,9.48
2022-11-05T03:32:49.333Z,13.85
2022-11-05T03:38:17.444Z,16.25
2022-11-05T03:43:26.661Z,12.00
2022-11-05T03:48:41.834Z,15.55
2022-11-05T03:53:49.162Z,19.77
2022-11-05T03:58:58.845Z,18.25
2022-11-05T04:04:00.051Z,26.73
2022-11-05T04:09:22.187Z,22.77
2022-11-05T04:14:23.278Z,23.23
2022-11-05T04:19:49.119Z,24.77
2022-11-05T04:24:50.565Z,24.95
2022-11-05T04:30:09.843Z,28.33
2022-11-05T04:35:10.921Z,25.50
2022-11-05T04:40:11.673Z,24.40
2022-11-05T04:45:29.600Z,28.50
2022-11-05T04:50:31.281Z,24.17
2022-11-05T04:55:42.016Z,31.40
2022-11-05T05:00:48.812Z,24.83
2022-11-05T05:05:54.029Z,23.38
2022-11-05T05:10:55.042Z,26.73
2022-11-05T05:16:08.349Z,21.52
2022-11-05T05:26:28.539Z,25.92
2022-11-05T05:31:29.676Z,27.23
2022-11-05T05:36:31.238Z,26.10
2022-11-05T05:41:46.335Z,31.08
2022-11-05T05:46:47.209Z,30.33
2022-11-05T05:51:48.797Z,24.00
2022-11-05T05:56:49.513Z,25.50
2022-11-05T06:01:53.523Z,20.50
2022-11-05T06:06:57.817Z,21.87
2022-11-05T06:12:03.487Z,23.58
2022-11-05T06:17:10.753Z,25.45
2022-11-05T06:22:11.752Z,24.12
2022-11-05T06:27:12.674Z,20.37
2022-11-05T06:32:13.492Z,20.23
2022-11-05T06:37:14.286Z,23.50
2022-11-05T06:42:25.901Z,21.45
2022-11-05T06:47:27.016Z,24.42
2022-11-05T06:52:30.440Z,21.30
2022-11-05T07:02:41.316Z,19.75
2022-11-05T07:07:47.228Z,21.65
2022-11-05T07:12:47.948Z,21.30
2022-11-05T07:17:52.023Z,17.67
2022-11-05T07:23:10.659Z,19.00
2022-11-05T07:28:16.103Z,15.23
2022-11-05T07:33:16.924Z,19.37
2022-11-05T07:38:21.376Z,15.43
2022-11-05T07:43:30.239Z,18.52
2022-11-05T07:48:34.406Z,19.58
2022-11-05T07:53:45.767Z,15.65
2022-11-05T07:58:46.711Z,16.60
2022-11-05T08:03:50.488Z,15.85
2022-11-05T08:08:51.221Z,18.40
2022-11-05T08:13:51.967Z,21.30
2022-11-05T08:18:53.058Z,24.20
2022-11-05T08:23:57.692Z,18.67
2022-11-05T08:29:08.078Z,19.40
2022-11-05T08:34:11.994Z,23.30
2022-11-05T08:39:22.849Z,16.42
2022-11-05T08:44:23.753Z,12.35
2022-11-05T08:49:25.243Z,14.48
2022-11-05T08:54:26.240Z,12.23
2022-11-05T08:59:36.834Z,17.77
2022-11-05T09:04:37.632Z,13.85
2022-11-05T09:09:38.554Z,15.20
2022-11-05T09:14:39.405Z,16.80
2022-11-05T09:19:40.339Z,12.27
2022-11-05T09:24:48.015Z,9.30
2022-11-05T09:29:48.791Z,10.18
2022-11-05T09:35:04.730Z,12.50
2022-11-05T09:40:17.310Z,14.52
2022-11-05T09:45:25.774Z,13.82
2022-11-05T09:50:44.778Z,13.60
2022-11-05T09:55:49.749Z,14.48
2022-11-05T10:00:55.160Z,14.68
2022-11-05T10:06:04.964Z,11.85
2022-11-05T10:11:17.213Z,15.00
2022-11-05T10:16:42.027Z,12.77
2022-11-05T10:22:05.472Z,12.18
2022-11-05T10:27:14.514Z,17.50
2022-11-05T10:32:34.295Z,15.60
2022-11-05T10:37:44.100Z,13.87
2022-11-05T10:43:00.897Z,12.90
2022-11-05T10:48:57.043Z,10.63
2022-11-05T10:54:17.415Z,13.40
2022-11-05T10:59:32.534Z,8.82
2022-11-05T11:04:37.668Z,9.50
2022-11-05T11:09:48.924Z,9.80
2022-11-05T11:15:01.505Z,7.55
2022-11-05T11:20:21.513Z,9.20
2022-11-05T11:25:51.543Z,8.45
2022-11-05T11:31:16.132Z,8.13
2022-11-05T11:36:48.645Z,6.25
2022-11-05T11:42:05.097Z,5.03
2022-11-05T11:47:16.062Z,8.32
2022-11-05T11:52:31.913Z,7.53
2022-11-05T11:57:53.073Z,9.43
2022-11-05T12:03:19.594Z,11.82
2022-11-05T12:10:10.444Z,12.68
2022-11-05T12:15:43.262Z,9.15
2022-11-05T12:21:34.566Z,6.83
2022-11-05T12:27:16.515Z,15.18
2022-11-05T12:34:01.311Z,7.35
2022-11-05T12:39:43.622Z,7.87
2022-11-05T12:45:00.879Z,11.70
2022-11-05T12:50:23.700Z,6.25
2022-11-05T12:56:03.848Z,7.37
2022-11-05T13:01:20.576Z,7.28
2022-11-05T13:06:34.216Z,7.30
2022-11-05T13:16:46.927Z,10.65
2022-11-05T13:23:27.788Z,8.70
2022-11-05T13:31:48.466Z,11.03
2022-11-05T13:37:19.107Z,8.52
2022-11-05T13:43:00.444Z,9.52
2022-11-05T13:48:32.704Z,12.18
2022-11-05T13:54:14.667Z,13.60
2022-11-05T13:59:38.864Z,11.80
2022-11-05T14:05:10.235Z,12.65
2022-11-05T14:10:43.712Z,10.93
2022-11-05T14:27:57.656Z,10.63
2022-11-05T14:33:15.575Z,8.90
2022-11-05T14:38:33.707Z,11.52
2022-11-05T14:43:47.011Z,12.63
2022-11-05T14:49:09.653Z,17.33
2022-11-05T14:54:48.169Z,8.13
2022-11-05T14:59:59.931Z,11.80
2022-11-05T15:12:08.379Z,8.27
2022-11-05T15:22:38.718Z,5.62
2022-11-05T15:29:43.411Z,8.73
2022-11-05T15:34:52.538Z,9.38
2022-11-05T15:40:00.328Z,9.95
2022-11-05T15:45:01.326Z,11.93
2022-11-05T15:50:22.020Z,17.15
2022-11-05T15:55:24.920Z,23.12
2022-11-05T16:00:29.320Z,31.08
2022-11-05T16:05:53.881Z,17.33
2022-11-05T16:10:58.191Z,10.80
2022-11-05T16:16:45.708Z,13.18
2022-11-05T16:22:09.925Z,16.55
2022-11-05T16:27:19.633Z,20.15
2022-11-05T16:32:30.715Z,11.82
2022-11-05T16:37:39.143Z,15.77
2022-11-05T16:42:40.900Z,9.10
2022-11-05T16:47:43.656Z,16.80
2022-11-05T16:52:45.969Z,13.73
2022-11-05T16:57:54.679Z,13.40
2022-11-05T17:02:55.785Z,17.50
2022-11-05T17:07:57.478Z,12.13
2022-11-05T17:12:58.362Z,11.30
2022-11-05T17:17:59.161Z,12.45
2022-11-05T17:23:01.050Z,15.13
2022-11-05T17:28:02.572Z,12.85
2022-11-05T17:33:04.456Z,27.05
2022-11-05T17:38:05.306Z,15.80
2022-11-05T17:43:07.486Z,22.77
2022-11-05T17:48:09.747Z,33.97
2022-11-05T17:53:15.758Z,13.98
2022-11-05T17:58:16.834Z,18.12
2022-11-05T18:03:17.609Z,24.58
2022-11-05T18:08:18.422Z,21.52
2022-11-05T18:13:19.242Z,16.92
2022-11-05T18:18:21.113Z,16.80
2022-11-05T18:23:22.199Z,16.33
2022-11-05T18:28:23.134Z,19.75
2022-11-05T18:33:23.915Z,22.25
2022-11-05T18:38:24.831Z,20.60
2022-11-05T18:43:26.571Z,22.65
2022-11-05T18:48:27.653Z,19.17
2022-11-05T18:53:31.578Z,23.35
2022-11-05T18:58:36.443Z,22.83
2022-11-05T19:03:37.168Z,25.85
2022-11-05T19:08:38.383Z,27.33
2022-11-05T19:13:47.299Z,27.48
2022-11-05T19:18:49.022Z,23.42
2022-11-05T19:23:51.362Z,25.25
2022-11-05T19:29:02.146Z,23.43
2022-11-05T19:34:04.535Z,23.52
2022-11-05T19:39:08.272Z,24.80
2022-11-05T19:44:09.156Z,23.87
2022-11-05T19:49:10.490Z,29.60
2022-11-05T19:54:11.796Z,24.95
2022-11-05T19:59:16.474Z,34.50
2022-11-05T20:04:17.192Z,29.58
2022-11-05T20:09:23.598Z,23.48
2022-11-05T20:14:25.482Z,25.52
2022-11-05T20:19:26.214Z,24.77
2022-11-05T20:24:29.756Z,23.75
2022-11-05T20:29:35.365Z,26.92
2022-11-05T20:34:36.907Z,28.40
2022-11-05T20:39:37.668Z,31.55
2022-11-05T20:44:38.544Z,29.33
2022-11-05T20:49:39.260Z,30.52
2022-11-05T20:54:40.219Z,25.30
2022-11-05T20:59:41.053Z,26.60
2022-11-05T21:04:41.998Z,23.87
2022-11-05T21:09:42.744Z,67.57
2022-11-05T21:14:46.449Z,31.77
2022-11-05T21:19:47.173Z,25.45
2022-11-05T21:24:47.933Z,22.35
2022-11-05T21:29:48.725Z,27.87
2022-11-05T21:34:49.612Z,20.30
2022-11-05T21:39:50.405Z,22.90
2022-11-05T21:44:53.939Z,21.87
2022-11-05T21:49:57.180Z,20.90
2022-11-05T21:55:22.877Z,22.52
2022-11-05T22:00:24.031Z,23.08
2022-11-05T22:05:25.877Z,21.10
2022-11-05T22:10:26.653Z,19.48
2022-11-05T22:15:27.809Z,22.62
2022-11-05T22:20:28.641Z,24.42
2022-11-05T22:25:29.412Z,34.83
2022-11-05T22:30:34.741Z,29.12
2022-11-05T22:35:41.061Z,27.70
2022-11-05T22:40:45.168Z,25.00
2022-11-05T22:45:45.939Z,26.00
2022-11-05T22:50:49.729Z,26.80
2022-11-05T22:55:50.462Z,28.20
2022-11-05T23:00:51.355Z,29.42
2022-11-05T23:07:39.835Z,32.72
2022-11-05T23:12:42.753Z,26.83
2022-11-05T23:18:07.849Z,23.70
2022-11-05T23:23:28.035Z,26.77
2022-11-05T23:28:28.811Z,22.83
2022-11-05T23:33:33.100Z,25.35
2022-11-05T23:38:37.360Z,29.05
2022-11-05T23:43:56.612Z,28.23
2022-11-05T23:48:57.585Z,24.65
2022-11-05T23:53:58.485Z,29.05
2022-11-05T23:58:59.717Z,25.45
